Beavercreek, Oregon
Current Conditions -  °F | °C
As of 7:53 AM on Sunday 21 Dec 2014 (Local Time) from KUAO Reporting Station
Few Clouds Few Clouds  
Wind Chill: 53°   Ceiling: Unl
Heat Index: 53°   Visibility: 10mi
Dew Point: 49°   Wind: 7mph
Humidity: 86%   Direction: 210°SSW
Pressure: 29.98"   Gusts: NA
Location:  45.25°N, 122.48°W
Report Text: KUAO 211553Z AUTO 21006KT 10SM FEW095 12/09 A2998 RMK AO2 SLP153 T01170094
Loading
Personal Weather Stations






























Interactive Weather Map New forecast layout! Learn more

10-Day Weather Forecast

Advertisements
Track Severe Weather on mobile